createdAt,value
2022-10-28T00:00:50.130Z,61.09
2022-10-28T00:03:17.396Z,61.10
2022-10-28T00:05:44.588Z,60.83
2022-10-28T00:08:11.202Z,61.06
2022-10-28T00:10:37.808Z,61.07
2022-10-28T00:13:04.377Z,61.06
2022-10-28T00:15:31.130Z,60.95
2022-10-28T00:17:57.627Z,61.09
2022-10-28T00:20:25.290Z,61.25
2022-10-28T00:22:51.804Z,61.01
2022-10-28T00:25:24.515Z,61.06
2022-10-28T00:27:52.690Z,61.13
2022-10-28T00:30:19.665Z,61.21
2022-10-28T00:32:46.219Z,61.11
2022-10-28T00:35:12.733Z,61.20
2022-10-28T00:37:39.272Z,61.45
2022-10-28T00:40:06.111Z,61.12
2022-10-28T00:42:32.831Z,61.03
2022-10-28T00:45:00.364Z,61.09
2022-10-28T00:47:35.965Z,61.09
2022-10-28T00:50:39.419Z,61.19
2022-10-28T00:53:14.736Z,61.25
2022-10-28T00:55:41.242Z,61.25
2022-10-28T00:58:07.789Z,61.14
2022-10-28T01:00:34.265Z,60.98
2022-10-28T01:03:00.828Z,61.16
2022-10-28T01:05:29.656Z,61.03
2022-10-28T01:07:58.897Z,61.24
2022-10-28T01:10:43.045Z,61.18
2022-10-28T01:13:42.003Z,61.13
2022-10-28T01:16:16.004Z,61.07
2022-10-28T01:18:48.905Z,61.13
2022-10-28T01:21:38.993Z,61.12
2022-10-28T01:24:15.808Z,61.13
2022-10-28T01:26:48.239Z,61.06
2022-10-28T01:29:40.321Z,61.06
2022-10-28T01:32:18.566Z,61.21
2022-10-28T01:35:06.403Z,61.15
2022-10-28T01:37:53.024Z,61.18
2022-10-28T01:40:24.788Z,61.18
2022-10-28T01:43:37.696Z,61.23
2022-10-28T01:46:30.587Z,61.23
2022-10-28T01:48:58.976Z,61.13
2022-10-28T01:51:46.735Z,61.12
2022-10-28T01:54:15.617Z,61.21
2022-10-28T01:56:42.084Z,61.40
2022-10-28T01:59:12.849Z,61.21
2022-10-28T02:01:39.451Z,61.22
2022-10-28T02:04:06.143Z,61.16
2022-10-28T02:06:32.788Z,61.49
2022-10-28T02:09:35.814Z,61.09
2022-10-28T02:12:33.815Z,61.24
2022-10-28T02:15:43.168Z,61.17
2022-10-28T02:18:14.238Z,61.39
2022-10-28T02:20:43.736Z,61.24
2022-10-28T02:23:30.999Z,61.28
2022-10-28T02:26:18.783Z,61.32
2022-10-28T02:29:06.111Z,61.17
2022-10-28T02:31:35.819Z,61.31
2022-10-28T02:34:05.952Z,61.40
2022-10-28T02:36:34.012Z,61.25
2022-10-28T02:39:00.559Z,61.26
2022-10-28T02:41:35.315Z,61.32
2022-10-28T02:44:06.022Z,61.20
2022-10-28T02:46:32.520Z,61.30
2022-10-28T02:49:03.900Z,61.38
2022-10-28T02:51:33.881Z,61.32
2022-10-28T02:54:09.354Z,61.28
2022-10-28T02:56:41.949Z,61.34
2022-10-28T02:59:11.055Z,61.26
2022-10-28T03:01:37.967Z,61.31
2022-10-28T03:04:05.026Z,61.21
2022-10-28T03:06:31.956Z,61.26
2022-10-28T03:08:58.435Z,61.35
2022-10-28T03:11:24.926Z,61.31
2022-10-28T03:13:51.387Z,61.41
2022-10-28T03:16:17.864Z,61.21
2022-10-28T03:18:44.451Z,61.35
2022-10-28T03:21:10.940Z,61.30
2022-10-28T03:23:37.410Z,61.26
2022-10-28T03:26:03.903Z,61.31
2022-10-28T03:28:30.380Z,61.08
2022-10-28T03:30:56.846Z,61.36
2022-10-28T03:33:23.341Z,60.93
2022-10-28T03:35:49.839Z,61.30
2022-10-28T03:38:16.331Z,61.36
2022-10-28T03:40:42.798Z,61.50
2022-10-28T03:43:09.291Z,61.23
2022-10-28T03:45:35.786Z,61.18
2022-10-28T03:48:02.298Z,61.29
2022-10-28T03:50:28.782Z,61.34
2022-10-28T03:52:55.268Z,61.25
2022-10-28T03:55:23.740Z,61.33
2022-10-28T03:57:50.296Z,61.43
2022-10-28T04:00:16.848Z,61.52
2022-10-28T04:02:43.386Z,61.39
2022-10-28T04:05:09.899Z,61.21
2022-10-28T04:07:36.439Z,61.03
2022-10-28T04:10:02.975Z,61.14
2022-10-28T04:12:29.439Z,61.16
2022-10-28T04:14:56.011Z,61.16
2022-10-28T04:17:22.488Z,61.41
2022-10-28T04:19:48.990Z,60.99
2022-10-28T04:22:15.603Z,61.32
2022-10-28T04:24:42.151Z,61.29
2022-10-28T04:27:08.620Z,61.22
2022-10-28T04:29:35.175Z,61.34
2022-10-28T04:32:01.887Z,61.33
2022-10-28T04:34:28.355Z,61.52
2022-10-28T04:36:54.859Z,61.33
2022-10-28T04:39:21.328Z,60.98
2022-10-28T04:41:48.026Z,61.26
2022-10-28T04:44:14.500Z,61.29
2022-10-28T04:46:40.992Z,61.32
2022-10-28T04:49:07.636Z,61.35
2022-10-28T04:51:34.156Z,61.35
2022-10-28T04:54:00.728Z,61.32
2022-10-28T04:56:27.439Z,61.26
2022-10-28T04:58:53.920Z,61.15
2022-10-28T05:01:20.485Z,61.33
2022-10-28T05:03:47.067Z,61.26
2022-10-28T05:06:13.554Z,61.20
2022-10-28T05:08:40.089Z,61.18
2022-10-28T05:11:06.580Z,61.36
2022-10-28T05:13:33.083Z,61.21
2022-10-28T05:15:59.564Z,61.28
2022-10-28T05:18:26.074Z,61.78
2022-10-28T05:20:54.927Z,61.11
2022-10-28T05:23:25.762Z,61.33
2022-10-28T05:25:55.111Z,61.22
2022-10-28T05:28:21.893Z,61.15
2022-10-28T05:30:48.468Z,61.16
2022-10-28T05:33:14.985Z,61.21
2022-10-28T05:35:41.456Z,61.36
2022-10-28T05:38:08.069Z,61.16
2022-10-28T05:40:34.640Z,61.34
2022-10-28T05:43:01.515Z,61.21
2022-10-28T05:47:59.798Z,61.21
2022-10-28T05:50:26.314Z,61.15
2022-10-28T05:52:54.175Z,61.18
2022-10-28T05:55:21.242Z,61.26
2022-10-28T05:57:48.358Z,61.21
2022-10-28T06:00:15.012Z,61.21
2022-10-28T06:02:41.805Z,61.23
2022-10-28T06:05:09.241Z,61.17
2022-10-28T06:07:35.999Z,61.17
2022-10-28T06:10:03.127Z,61.10
2022-10-28T06:12:28.093Z,61.24
2022-10-28T06:14:54.628Z,61.23
2022-10-28T06:17:21.140Z,60.84
2022-10-28T06:19:47.604Z,61.25
2022-10-28T06:22:14.120Z,61.22
2022-10-28T06:24:40.610Z,61.26
2022-10-28T06:27:07.310Z,61.56
2022-10-28T06:29:34.290Z,61.15
2022-10-28T06:32:00.801Z,61.08
2022-10-28T06:34:27.288Z,61.21
2022-10-28T06:36:54.957Z,61.20
2022-10-28T06:39:21.469Z,61.21
2022-10-28T06:41:47.964Z,61.16
2022-10-28T06:44:14.473Z,61.09
2022-10-28T06:46:42.470Z,60.89
2022-10-28T06:49:09.156Z,61.19
2022-10-28T06:51:35.699Z,61.12
2022-10-28T06:54:02.272Z,61.06
2022-10-28T06:56:28.782Z,61.27
2022-10-28T06:58:55.300Z,61.49
2022-10-28T07:01:21.970Z,60.86
2022-10-28T07:03:48.647Z,61.05
2022-10-28T07:06:15.972Z,61.09
2022-10-28T07:08:42.478Z,61.05
2022-10-28T07:11:09.002Z,61.15
2022-10-28T07:13:35.537Z,61.27
2022-10-28T07:16:02.192Z,61.21
2022-10-28T07:18:29.466Z,61.04
2022-10-28T07:21:00.207Z,61.14
2022-10-28T07:23:26.968Z,61.15
2022-10-28T07:25:56.328Z,61.10
2022-10-28T07:28:23.506Z,61.10
2022-10-28T07:30:50.020Z,61.10
2022-10-28T07:33:16.538Z,61.11
2022-10-28T07:35:44.225Z,61.43
2022-10-28T07:38:10.982Z,61.10
2022-10-28T07:40:37.530Z,61.10
2022-10-28T07:43:04.010Z,61.16
2022-10-28T07:45:30.749Z,61.17
2022-10-28T07:47:57.297Z,61.08
2022-10-28T07:50:23.765Z,61.11
2022-10-28T07:52:50.270Z,60.98
2022-10-28T07:55:16.774Z,60.99
2022-10-28T07:57:43.336Z,61.09
2022-10-28T08:00:10.142Z,61.08
2022-10-28T08:02:36.671Z,61.01
2022-10-28T08:05:03.461Z,61.11
2022-10-28T08:07:33.731Z,61.13
2022-10-28T08:10:02.898Z,61.05
2022-10-28T08:12:30.700Z,61.09
2022-10-28T08:14:57.260Z,61.20
2022-10-28T08:17:23.797Z,61.07
2022-10-28T08:19:50.311Z,61.17
2022-10-28T08:22:16.807Z,61.05
2022-10-28T08:24:43.302Z,61.07
2022-10-28T08:27:09.769Z,61.29
2022-10-28T08:29:36.325Z,61.06
2022-10-28T08:32:02.810Z,61.11
2022-10-28T08:34:30.938Z,61.06
2022-10-28T08:36:57.579Z,61.08
2022-10-28T08:39:24.260Z,61.13
2022-10-28T08:41:55.918Z,61.32
2022-10-28T08:44:44.287Z,61.12
2022-10-28T08:47:20.194Z,61.12
2022-10-28T08:49:49.371Z,61.15
2022-10-28T08:52:26.598Z,61.01
2022-10-28T08:55:07.562Z,61.24
2022-10-28T08:57:39.162Z,61.22
2022-10-28T09:00:07.622Z,61.10
2022-10-28T09:03:09.325Z,61.02
2022-10-28T09:05:35.942Z,61.05
2022-10-28T09:08:02.456Z,61.62
2022-10-28T09:10:54.514Z,61.12
2022-10-28T09:13:23.851Z,61.14
2022-10-28T09:15:53.298Z,61.22
2022-10-28T09:18:22.990Z,61.28
2022-10-28T09:20:56.557Z,61.14
2022-10-28T09:23:44.757Z,61.30
2022-10-28T09:26:37.715Z,61.10
2022-10-28T09:29:10.313Z,61.25
2022-10-28T09:31:40.279Z,61.08
2022-10-28T09:34:18.882Z,61.17
2022-10-28T09:36:57.815Z,61.14
2022-10-28T09:39:29.671Z,60.97
2022-10-28T09:41:57.611Z,60.82
2022-10-28T09:44:28.823Z,61.12
2022-10-28T09:46:56.458Z,61.12
2022-10-28T09:49:26.415Z,61.21
2022-10-28T09:51:59.759Z,61.15
2022-10-28T09:54:32.981Z,61.17
2022-10-28T09:56:59.490Z,61.07
2022-10-28T09:59:25.978Z,61.06
2022-10-28T10:01:52.553Z,61.15
2022-10-28T10:04:23.177Z,61.12
2022-10-28T10:06:52.214Z,61.11
2022-10-28T10:09:32.440Z,61.06
2022-10-28T10:12:09.105Z,61.13
2022-10-28T10:14:47.810Z,61.04
2022-10-28T10:17:30.681Z,61.13
2022-10-28T10:20:04.259Z,61.06
2022-10-28T10:22:31.592Z,60.98
2022-10-28T10:24:58.219Z,61.14
2022-10-28T10:27:25.253Z,60.99
2022-10-28T10:29:52.170Z,61.15
2022-10-28T10:32:19.253Z,61.05
2022-10-28T10:34:47.494Z,61.26
2022-10-28T10:37:18.526Z,61.07
2022-10-28T10:39:45.069Z,61.08
2022-10-28T10:42:20.948Z,61.10
2022-10-28T10:44:47.444Z,61.06
2022-10-28T10:47:16.271Z,61.15
2022-10-28T10:49:42.767Z,61.19
2022-10-28T10:52:20.343Z,61.10
2022-10-28T10:55:07.360Z,61.23
2022-10-28T10:57:33.875Z,61.08
2022-10-28T11:00:00.401Z,61.16
2022-10-28T11:02:34.932Z,61.15
2022-10-28T11:05:09.689Z,61.11
2022-10-28T11:07:36.772Z,61.14
2022-10-28T11:10:03.493Z,61.09
2022-10-28T11:12:32.073Z,61.07
2022-10-28T11:14:59.928Z,61.06
2022-10-28T11:17:34.111Z,61.09
2022-10-28T11:20:07.326Z,61.01
2022-10-28T11:23:00.038Z,61.02
2022-10-28T11:25:37.033Z,61.15
2022-10-28T11:28:39.249Z,61.13
2022-10-28T11:31:18.088Z,61.15
2022-10-28T11:34:11.639Z,61.10
2022-10-28T11:36:53.748Z,61.12
2022-10-28T11:39:39.510Z,61.33
2022-10-28T11:42:08.906Z,61.05
2022-10-28T11:44:58.109Z,61.06
2022-10-28T11:47:33.609Z,61.06
2022-10-28T11:50:18.245Z,60.95
2022-10-28T11:53:00.755Z,60.94
2022-10-28T11:55:34.880Z,61.12
2022-10-28T11:58:56.972Z,61.09
2022-10-28T12:01:27.872Z,61.06
2022-10-28T12:04:06.404Z,60.98
2022-10-28T12:06:51.041Z,61.17
2022-10-28T12:09:20.430Z,61.13
2022-10-28T12:12:02.203Z,61.10
2022-10-28T12:14:57.019Z,61.08
2022-10-28T12:17:36.258Z,61.06
2022-10-28T12:20:09.542Z,61.15
2022-10-28T12:22:55.828Z,61.02
2022-10-28T12:25:25.567Z,61.13
2022-10-28T12:27:54.543Z,61.05
2022-10-28T12:30:22.994Z,61.09
2022-10-28T12:32:55.164Z,60.98
2022-10-28T12:35:22.981Z,61.01
2022-10-28T12:38:00.619Z,61.06
2022-10-28T12:40:34.095Z,61.16
2022-10-28T12:43:09.483Z,60.99
2022-10-28T12:45:35.990Z,60.96
2022-10-28T12:48:24.509Z,60.95
2022-10-28T12:50:53.422Z,60.94
2022-10-28T12:53:30.606Z,61.01
2022-10-28T12:55:58.951Z,60.99
2022-10-28T12:58:55.034Z,60.93
2022-10-28T13:01:22.535Z,60.96
2022-10-28T13:03:49.806Z,60.99
2022-10-28T13:06:28.572Z,61.20
2022-10-28T13:09:20.251Z,60.90
2022-10-28T13:11:55.647Z,60.86
2022-10-28T13:14:51.039Z,60.92
2022-10-28T13:17:45.476Z,61.03
2022-10-28T13:20:31.522Z,61.06
2022-10-28T13:23:22.158Z,60.93
2022-10-28T13:26:27.414Z,60.88
2022-10-28T13:28:57.994Z,60.97
2022-10-28T13:31:35.030Z,60.99
2022-10-28T13:34:01.516Z,60.98
2022-10-28T13:36:36.318Z,61.04
2022-10-28T13:39:04.389Z,60.99
2022-10-28T13:41:34.790Z,60.96
2022-10-28T13:44:10.544Z,60.91
2022-10-28T13:46:58.809Z,60.93
2022-10-28T13:49:29.074Z,60.98
2022-10-28T13:52:19.078Z,61.02
2022-10-28T13:54:45.435Z,60.97
2022-10-28T13:57:21.046Z,60.86
2022-10-28T13:59:51.215Z,60.98
2022-10-28T14:02:34.731Z,60.97
2022-10-28T14:05:12.652Z,60.89
2022-10-28T14:07:56.860Z,60.93
2022-10-28T14:10:27.231Z,60.93
2022-10-28T14:13:03.696Z,60.92
2022-10-28T14:15:38.901Z,61.03
2022-10-28T14:18:15.997Z,61.00
2022-10-28T14:20:49.350Z,60.90
2022-10-28T14:23:21.902Z,60.90
2022-10-28T14:25:51.107Z,60.79
2022-10-28T14:28:29.835Z,60.96
2022-10-28T14:31:08.738Z,60.84
2022-10-28T14:33:36.359Z,60.95
2022-10-28T14:36:18.239Z,61.00
2022-10-28T14:38:53.697Z,60.88
2022-10-28T14:41:38.768Z,61.00
2022-10-28T14:44:20.865Z,60.90
2022-10-28T14:47:00.399Z,60.92
2022-10-28T14:49:36.601Z,60.91
2022-10-28T14:52:18.545Z,60.83
2022-10-28T14:54:50.682Z,60.96
2022-10-28T14:57:22.104Z,60.88
2022-10-28T14:59:49.527Z,60.89
2022-10-28T15:02:16.011Z,61.02
2022-10-28T15:04:44.014Z,60.95
2022-10-28T15:07:15.225Z,60.95
2022-10-28T15:09:43.463Z,61.01
2022-10-28T15:12:19.465Z,61.01
2022-10-28T15:15:15.821Z,61.15
2022-10-28T15:17:43.528Z,60.95
2022-10-28T15:20:34.427Z,61.00
2022-10-28T15:23:17.214Z,60.99
2022-10-28T15:25:43.835Z,60.93
2022-10-28T15:28:11.290Z,60.84
2022-10-28T15:30:46.094Z,61.03
2022-10-28T15:33:21.065Z,60.73
2022-10-28T15:35:47.605Z,60.87
2022-10-28T15:38:33.538Z,61.00
2022-10-28T15:41:00.047Z,60.99
2022-10-28T15:43:27.857Z,60.89
2022-10-28T15:45:54.366Z,61.02
2022-10-28T15:48:24.521Z,61.04
2022-10-28T15:51:10.507Z,61.05
2022-10-28T15:53:41.733Z,60.95
2022-10-28T15:56:09.559Z,60.84
2022-10-28T15:58:39.012Z,60.88
2022-10-28T16:01:27.882Z,60.93
2022-10-28T16:03:54.394Z,60.99
2022-10-28T16:06:26.275Z,61.03
2022-10-28T16:09:29.561Z,60.89
2022-10-28T16:11:57.546Z,61.03
2022-10-28T16:14:31.323Z,60.95
2022-10-28T16:17:30.674Z,60.96
2022-10-28T16:20:00.044Z,60.97
2022-10-28T16:22:27.371Z,61.07
2022-10-28T16:24:54.258Z,60.89
2022-10-28T16:27:25.509Z,60.99
2022-10-28T16:29:52.021Z,61.00
2022-10-28T16:32:29.546Z,60.90
2022-10-28T16:35:00.120Z,60.96
2022-10-28T16:37:28.620Z,61.07
2022-10-28T16:39:55.289Z,61.01
2022-10-28T16:42:22.090Z,60.99
2022-10-28T16:44:48.813Z,61.03
2022-10-28T16:47:17.846Z,61.18
2022-10-28T16:49:45.249Z,61.01
2022-10-28T16:52:29.776Z,60.99
2022-10-28T16:54:56.529Z,60.96
2022-10-28T16:59:50.655Z,61.12
2022-10-28T17:02:32.176Z,61.06
2022-10-28T17:04:58.986Z,60.96
2022-10-28T17:07:26.176Z,61.06
2022-10-28T17:09:52.658Z,61.14
2022-10-28T17:12:20.533Z,60.97
2022-10-28T17:14:47.037Z,61.05
2022-10-28T17:17:13.538Z,61.06
2022-10-28T17:19:40.264Z,61.05
2022-10-28T17:22:09.264Z,61.00
2022-10-28T17:24:36.769Z,60.75
2022-10-28T17:27:03.558Z,61.05
2022-10-28T17:29:30.110Z,61.15
2022-10-28T17:31:56.578Z,60.93
2022-10-28T17:34:23.049Z,61.04
2022-10-28T17:36:49.566Z,60.62
2022-10-28T17:39:19.599Z,61.00
2022-10-28T17:41:48.494Z,61.05
2022-10-28T17:44:15.218Z,61.05
2022-10-28T17:46:41.752Z,60.92
2022-10-28T17:49:08.823Z,61.06
2022-10-28T17:51:35.955Z,61.04
2022-10-28T17:54:02.521Z,60.87
2022-10-28T17:56:29.137Z,61.13
2022-10-28T17:58:55.678Z,61.07
2022-10-28T18:01:22.257Z,61.19
2022-10-28T18:03:49.721Z,61.04
2022-10-28T18:06:16.257Z,60.97
2022-10-28T18:08:43.218Z,61.13
2022-10-28T18:11:11.438Z,60.96
2022-10-28T18:13:38.880Z,60.91
2022-10-28T18:16:05.913Z,61.01
2022-10-28T18:18:32.545Z,60.99
2022-10-28T18:20:59.061Z,61.00
2022-10-28T18:23:25.634Z,61.06
2022-10-28T18:25:58.767Z,60.81
2022-10-28T18:28:26.264Z,61.11
2022-10-28T18:30:52.839Z,61.21
2022-10-28T18:33:19.407Z,61.11
2022-10-28T18:38:17.301Z,60.93
2022-10-28T18:40:47.190Z,61.11
2022-10-28T18:43:14.492Z,61.10
2022-10-28T18:45:41.041Z,61.03
2022-10-28T18:48:07.537Z,61.08
2022-10-28T18:50:34.014Z,61.61
2022-10-28T18:53:00.519Z,61.20
2022-10-28T18:55:27.010Z,61.15
2022-10-28T18:57:53.480Z,61.09
2022-10-28T19:00:20.307Z,61.08
2022-10-28T19:02:47.928Z,61.05
2022-10-28T19:05:14.741Z,61.18
2022-10-28T19:07:41.247Z,61.17
2022-10-28T19:10:08.029Z,61.21
2022-10-28T19:12:37.030Z,61.14
2022-10-28T19:15:06.152Z,61.06
2022-10-28T19:17:32.680Z,60.89
2022-10-28T19:19:59.191Z,60.98
2022-10-28T19:22:25.835Z,61.13
2022-10-28T19:24:52.378Z,61.09
2022-10-28T19:27:18.837Z,61.24
2022-10-28T19:29:45.966Z,61.09
2022-10-28T19:32:12.464Z,61.07
2022-10-28T19:34:38.993Z,61.11
2022-10-28T19:37:05.482Z,61.08
2022-10-28T19:39:31.983Z,61.04
2022-10-28T19:41:58.438Z,61.15
2022-10-28T19:44:24.970Z,61.13
2022-10-28T19:46:51.477Z,61.18
2022-10-28T19:49:19.301Z,61.04
2022-10-28T19:51:47.620Z,61.11
2022-10-28T19:54:15.716Z,61.23
2022-10-28T19:56:47.346Z,61.16
2022-10-28T19:59:13.849Z,61.18
2022-10-28T20:01:40.700Z,61.16
2022-10-28T20:04:07.919Z,61.23
2022-10-28T20:06:35.715Z,61.09
2022-10-28T20:09:02.242Z,61.21
2022-10-28T20:11:33.389Z,61.07
2022-10-28T20:14:05.055Z,61.11
2022-10-28T20:16:32.121Z,61.18
2022-10-28T20:18:58.687Z,61.07
2022-10-28T20:21:26.679Z,61.11
2022-10-28T20:23:54.296Z,61.15
2022-10-28T20:26:22.276Z,61.16
2022-10-28T20:28:49.625Z,61.08
2022-10-28T20:31:20.287Z,61.23
2022-10-28T20:33:53.811Z,61.23
2022-10-28T20:36:25.058Z,61.15
2022-10-28T20:38:58.083Z,61.03
2022-10-28T20:41:24.966Z,61.24
2022-10-28T20:43:52.756Z,61.24
2022-10-28T20:46:20.324Z,61.32
2022-10-28T20:48:47.042Z,61.18
2022-10-28T20:51:13.619Z,61.21
2022-10-28T20:53:40.104Z,61.49
2022-10-28T20:56:06.941Z,61.01
2022-10-28T20:58:34.847Z,61.25
2022-10-28T21:01:03.114Z,61.30
2022-10-28T21:03:29.586Z,61.18
2022-10-28T21:05:56.084Z,61.27
2022-10-28T21:08:22.590Z,61.19
2022-10-28T21:10:49.069Z,61.12
2022-10-28T21:13:15.565Z,61.20
2022-10-28T21:15:43.726Z,61.17
2022-10-28T21:18:10.222Z,61.52
2022-10-28T21:20:37.625Z,61.18
2022-10-28T21:23:04.393Z,61.34
2022-10-28T21:25:31.045Z,61.34
2022-10-28T21:27:58.029Z,61.27
2022-10-28T21:30:25.053Z,61.29
2022-10-28T21:32:51.735Z,60.91
2022-10-28T21:35:18.438Z,61.26
2022-10-28T21:37:44.949Z,61.23
2022-10-28T21:40:12.118Z,61.29
2022-10-28T21:42:38.586Z,61.01
2022-10-28T21:45:07.578Z,61.35
2022-10-28T21:47:34.537Z,61.35
2022-10-28T21:50:01.038Z,61.37
2022-10-28T21:52:27.530Z,61.37
2022-10-28T21:54:54.039Z,61.14
2022-10-28T21:57:20.516Z,61.22
2022-10-28T21:59:49.541Z,61.37
2022-10-28T22:02:16.348Z,61.27
2022-10-28T22:04:43.019Z,61.33
2022-10-28T22:07:09.512Z,61.48
2022-10-28T22:09:37.519Z,61.33
2022-10-28T22:12:04.488Z,61.38
2022-10-28T22:14:30.999Z,61.83
2022-10-28T22:16:57.475Z,61.36
2022-10-28T22:19:23.990Z,61.60
2022-10-28T22:21:50.505Z,61.36
2022-10-28T22:24:17.000Z,61.35
2022-10-28T22:26:43.522Z,61.38
2022-10-28T22:29:10.056Z,61.34
2022-10-28T22:31:36.557Z,61.20
2022-10-28T22:34:05.291Z,61.53
2022-10-28T22:36:31.767Z,61.44
2022-10-28T22:38:58.290Z,61.47
2022-10-28T22:41:28.854Z,61.40
2022-10-28T22:43:59.398Z,61.45
2022-10-28T22:46:27.203Z,61.38
2022-10-28T22:48:53.843Z,61.43
2022-10-28T22:51:20.393Z,61.43
2022-10-28T22:53:47.080Z,61.43
2022-10-28T22:56:21.605Z,61.48
2022-10-28T22:58:48.652Z,61.30
2022-10-28T23:01:16.904Z,61.51
2022-10-28T23:03:44.817Z,61.45
2022-10-28T23:06:12.071Z,61.35
2022-10-28T23:08:39.025Z,61.33
2022-10-28T23:11:05.965Z,61.38
2022-10-28T23:13:32.602Z,61.47
2022-10-28T23:16:05.822Z,61.44
2022-10-28T23:18:32.313Z,61.46
2022-10-28T23:21:13.874Z,61.45
2022-10-28T23:23:40.955Z,61.51
2022-10-28T23:26:09.033Z,61.45
2022-10-28T23:28:35.522Z,61.34
2022-10-28T23:31:02.693Z,61.51
2022-10-28T23:33:30.106Z,61.39
2022-10-28T23:35:57.078Z,61.25
2022-10-28T23:38:23.620Z,61.08
2022-10-28T23:41:03.948Z,61.46
2022-10-28T23:43:30.658Z,61.49
2022-10-28T23:45:57.466Z,61.51
2022-10-28T23:48:24.373Z,61.40
2022-10-28T23:50:51.133Z,61.53
2022-10-28T23:53:17.729Z,61.71
2022-10-28T23:55:44.957Z,61.51
2022-10-28T23:58:12.401Z,61.48
